Time;durP1;ratioP1;P1;durP2;ratioP2;P2;SDS_P1;SDS_P2;PMS_P1;PMS_P2;Temp;Humidity;BMP_temperature;BMP_pressure;BME280_temperature;BME280_humidity;BME280_pressure;Samples;Min_cycle;Max_cycle;Signal;HPM_P1;HPM_P2
2022/07/14 00:01:15;;;;;;;6.00;1.58;;;;;;;22.22;41.16;100374.16;5074113;28;20048;-67
2022/07/14 00:03:43;;;;;;;4.63;1.75;;;;;;;22.16;40.86;100381.06;5074015;28;20048;-67
2022/07/14 00:06:13;;;;;;;5.43;1.80;;;;;;;22.11;41.33;100371.72;5073843;28;20485;-67
2022/07/14 00:08:43;;;;;;;6.20;1.83;;;;;;;22.07;41.56;100373.91;5073055;28;20497;-67
2022/07/14 00:11:12;;;;;;;6.22;1.80;;;;;;;22.02;41.52;100370.81;5074261;28;20397;-67
2022/07/14 00:13:41;;;;;;;3.58;1.58;;;;;;;21.99;42.19;100381.97;5073484;28;20055;-67
2022/07/14 00:16:09;;;;;;;4.15;1.77;;;;;;;21.95;42.00;100375.19;5073759;28;20052;-67
2022/07/14 00:18:43;;;;;;;3.90;1.50;;;;;;;21.89;41.33;100373.09;5073561;28;20040;-67
2022/07/14 00:21:14;;;;;;;4.25;1.77;;;;;;;21.89;41.77;100373.09;5073892;28;20044;-67
2022/07/14 00:23:42;;;;;;;4.45;1.52;;;;;;;21.89;41.78;100381.25;5073612;28;20515;-67
2022/07/14 00:26:11;;;;;;;6.32;1.60;;;;;;;21.91;41.89;100382.81;5073553;28;20045;-67
2022/07/14 00:28:40;;;;;;;8.15;5.10;;;;;;;21.93;41.85;100377.22;5073367;28;20139;-67
2022/07/14 00:31:09;;;;;;;7.55;4.63;;;;;;;21.89;42.06;100382.09;5073372;28;20037;-67
2022/07/14 00:33:39;;;;;;;5.18;2.40;;;;;;;21.87;42.27;100386.00;5073474;28;20119;-67
2022/07/14 00:36:08;;;;;;;6.13;2.22;;;;;;;21.84;42.85;100397.19;5073524;28;20500;-67
2022/07/14 00:38:38;;;;;;;5.32;1.90;;;;;;;21.80;43.22;100388.50;5073183;28;20036;-67
2022/07/14 00:41:06;;;;;;;6.55;2.20;;;;;;;21.75;43.25;100384.59;5073773;28;20123;-67
2022/07/14 00:43:35;;;;;;;6.55;2.20;;;;;;;21.66;43.65;100387.25;5073078;28;20511;-67
2022/07/14 00:46:03;;;;;;;5.03;1.98;;;;;;;21.59;44.47;100383.47;5073553;28;20115;-67
2022/07/14 00:48:32;;;;;;;7.03;1.88;;;;;;;21.55;43.75;100387.50;5073183;28;20044;-67
2022/07/14 00:51:00;;;;;;;5.65;2.10;;;;;;;21.48;44.35;100388.31;5073557;28;20074;-67
2022/07/14 00:53:28;;;;;;;3.83;1.85;;;;;;;21.38;44.97;100389.25;5074489;28;20041;-67
2022/07/14 00:55:58;;;;;;;4.68;1.50;;;;;;;21.30;44.56;100397.34;5073222;28;20072;-67
2022/07/14 00:58:27;;;;;;;4.53;2.05;;;;;;;21.34;43.27;100387.88;5073219;28;20062;-67
2022/07/14 01:00:55;;;;;;;5.30;1.75;;;;;;;21.39;44.04;100390.09;5073395;28;20044;-67
2022/07/14 01:03:24;;;;;;;7.68;1.92;;;;;;;21.37;44.50;100392.97;5071613;28;20489;-67
2022/07/14 01:05:52;;;;;;;4.97;1.85;;;;;;;21.39;43.44;100385.53;5073326;28;20512;-67
2022/07/14 01:08:21;;;;;;;4.50;1.60;;;;;;;21.51;42.65;100385.25;5073133;28;20457;-67
2022/07/14 01:10:49;;;;;;;2.65;1.33;;;;;;;21.65;42.07;100390.97;5073013;28;20051;-66
2022/07/14 01:13:19;;;;;;;2.60;1.30;;;;;;;21.67;42.93;100382.66;5072856;28;20037;-66
2022/07/14 01:15:47;;;;;;;3.67;1.40;;;;;;;21.69;42.70;100386.91;5055023;28;20552;-67
2022/07/14 01:18:16;;;;;;;3.15;1.30;;;;;;;21.65;42.88;100379.25;5073993;28;20041;-67
2022/07/14 01:20:44;;;;;;;3.63;1.27;;;;;;;21.85;41.88;100379.88;5079271;28;20041;-67
2022/07/14 01:23:14;;;;;;;5.25;1.60;;;;;;;21.68;43.18;100385.22;5079463;28;20509;-67
2022/07/14 01:25:42;;;;;;;6.20;1.60;;;;;;;21.53;43.46;100392.25;5061526;28;20643;-67
2022/07/14 01:28:11;;;;;;;3.92;1.50;;;;;;;21.47;43.77;100379.31;5079598;28;20406;-67
2022/07/14 01:30:39;;;;;;;3.53;1.50;;;;;;;21.43;43.86;100392.38;5079437;28;20044;-67
2022/07/14 01:33:07;;;;;;;4.47;1.58;;;;;;;21.41;44.01;100388.09;5061505;28;20079;-67
2022/07/14 01:35:36;;;;;;;4.43;1.42;;;;;;;21.55;42.94;100387.50;5079120;28;20064;-66
2022/07/14 01:38:04;;;;;;;3.38;1.45;;;;;;;21.54;43.04;100388.53;5079655;28;20041;-66
2022/07/14 01:40:34;;;;;;;4.65;1.90;;;;;;;21.69;42.79;100384.19;5079497;28;20250;-67
2022/07/14 01:43:02;;;;;;;3.35;1.45;;;;;;;21.70;42.79;100377.75;5079320;28;20449;-67
2022/07/14 01:45:32;;;;;;;3.75;1.70;;;;;;;21.63;43.54;100373.16;5079230;28;20477;-68
2022/07/14 01:48:01;;;;;;;4.45;1.60;;;;;;;21.60;43.81;100374.31;5079410;28;20123;-67
2022/07/14 01:50:29;;;;;;;4.32;1.70;;;;;;;21.61;43.49;100373.28;5079127;28;20115;-68
2022/07/14 01:52:58;;;;;;;4.03;1.55;;;;;;;21.60;43.92;100366.16;5079379;28;20400;-67
2022/07/14 01:55:26;;;;;;;4.35;1.40;;;;;;;21.61;43.02;100367.84;5079252;28;20040;-68
2022/07/14 01:57:55;;;;;;;3.95;1.42;;;;;;;21.78;42.71;100366.09;5079394;28;20047;-67
2022/07/14 02:00:24;;;;;;;2.78;1.55;;;;;;;22.02;42.03;100365.38;5061317;28;20090;-67
2022/07/14 02:02:52;;;;;;;2.58;1.40;;;;;;;22.00;41.86;100367.38;5079101;28;20063;-67
2022/07/14 02:05:21;;;;;;;4.57;1.52;;;;;;;21.92;42.11;100361.94;5078069;28;20461;-67
2022/07/14 02:07:49;;;;;;;2.30;1.30;;;;;;;21.81;43.21;100367.63;5079136;28;20497;-67
2022/07/14 02:13:04;;;;;;;3.88;2.00;;;;;;;21.61;44.39;100370.56;5078946;28;20079;-68
2022/07/14 02:15:32;;;;;;;6.35;2.20;;;;;;;21.57;44.91;100373.78;5078604;28;20064;-67
2022/07/14 02:18:01;;;;;;;5.53;2.20;;;;;;;21.51;45.07;100375.25;5078972;28;20040;-67
2022/07/14 02:20:29;;;;;;;7.70;2.10;;;;;;;21.44;45.30;100371.50;5078855;28;20538;-68
2022/07/14 02:22:57;;;;;;;3.40;1.63;;;;;;;21.48;45.34;100372.03;5079282;28;20098;-67
2022/07/14 02:25:26;;;;;;;3.90;1.80;;;;;;;21.40;45.81;100378.25;5078936;28;20075;-67
2022/07/14 02:27:54;;;;;;;3.97;1.50;;;;;;;21.38;44.38;100377.56;5078878;28;20072;-67
2022/07/14 02:30:24;;;;;;;3.25;1.60;;;;;;;21.32;44.72;100375.47;5077142;28;20098;-67
2022/07/14 02:32:52;;;;;;;2.60;1.65;;;;;;;21.30;45.36;100380.19;5057873;28;20045;-67
2022/07/14 02:35:20;;;;;;;3.25;1.63;;;;;;;21.28;45.71;100379.50;5075842;28;20108;-67
2022/07/14 02:37:48;;;;;;;3.45;1.45;;;;;;;21.21;45.89;100379.25;5075497;28;20045;-67
2022/07/14 02:40:17;;;;;;;3.35;1.75;;;;;;;21.15;46.46;100386.19;5075521;28;20067;-67
2022/07/14 02:42:45;;;;;;;3.90;1.60;;;;;;;21.06;46.89;100381.69;5075440;28;20072;-67
2022/07/14 02:45:14;;;;;;;5.28;2.10;;;;;;;20.96;47.21;100380.94;5057752;28;20497;-67
2022/07/14 02:47:43;;;;;;;7.18;2.28;;;;;;;20.88;47.46;100386.28;5075568;28;20041;-67
2022/07/14 02:50:12;;;;;;;7.20;1.90;;;;;;;20.84;47.73;100384.84;5075559;28;20040;-67
2022/07/14 02:52:40;;;;;;;5.00;1.80;;;;;;;20.81;47.38;100390.59;5057111;28;20072;-67
2022/07/14 02:55:09;;;;;;;4.32;2.10;;;;;;;20.73;47.64;100394.06;5075476;28;20133;-67
2022/07/14 02:57:37;;;;;;;4.75;1.98;;;;;;;20.70;47.81;100390.84;5075312;28;20070;-67
2022/07/14 03:00:08;;;;;;;6.65;1.98;;;;;;;20.68;47.70;100388.28;5075455;28;20056;-67
2022/07/14 03:02:36;;;;;;;4.60;2.10;;;;;;;20.67;47.69;100393.88;5057068;28;20060;-67
2022/07/14 03:05:07;;;;;;;8.15;2.65;;;;;;;20.69;47.74;100394.56;5075184;28;20386;-67
2022/07/14 03:07:36;;;;;;;8.07;2.95;;;;;;;20.65;48.64;100385.84;5074909;28;20051;-67
2022/07/14 03:10:04;;;;;;;6.18;2.50;;;;;;;20.65;49.03;100398.56;5074887;28;20067;-68
2022/07/14 03:12:34;;;;;;;13.77;3.03;;;;;;;20.64;48.94;100388.72;5074707;28;20083;-68
2022/07/14 03:15:02;;;;;;;9.07;2.55;;;;;;;20.67;48.73;100402.00;5075114;28;20429;-67
2022/07/14 03:17:30;;;;;;;6.35;2.60;;;;;;;20.69;49.49;100402.69;5074700;28;20105;-68
2022/07/14 03:19:58;;;;;;;7.45;2.53;;;;;;;20.70;49.75;100399.81;5074867;28;20044;-67
2022/07/14 03:22:29;;;;;;;6.28;2.03;;;;;;;20.75;49.57;100410.19;5075050;28;20044;-67
2022/07/14 03:24:57;;;;;;;7.38;2.33;;;;;;;20.80;48.76;100408.72;5057222;28;20044;-67
2022/07/14 03:27:25;;;;;;;7.90;3.38;;;;;;;20.86;49.13;100401.84;5074695;28;20457;-67
2022/07/14 03:29:54;;;;;;;10.80;3.20;;;;;;;20.92;49.29;100392.22;5074686;28;20519;-67
2022/07/14 03:32:22;;;;;;;8.45;3.13;;;;;;;21.05;48.40;100403.56;5074837;28;20048;-67
2022/07/14 03:34:50;;;;;;;8.63;3.30;;;;;;;21.12;48.50;100405.47;5074518;28;20068;-67
2022/07/14 03:37:19;;;;;;;9.10;4.30;;;;;;;21.23;48.20;100401.69;5074428;28;20052;-67
2022/07/14 03:39:48;;;;;;;10.90;3.85;;;;;;;21.34;48.66;100400.59;5074423;28;20078;-67
2022/07/14 03:42:17;;;;;;;9.95;3.90;;;;;;;21.43;48.42;100403.22;5073421;28;20049;-67
2022/07/14 03:44:45;;;;;;;10.43;3.90;;;;;;;21.54;48.57;100403.97;5056121;28;20080;-67
2022/07/14 03:47:14;;;;;;;12.45;4.22;;;;;;;21.50;48.88;100397.97;5074526;28;20452;-67
2022/07/14 03:49:42;;;;;;;11.70;4.03;;;;;;;21.46;49.45;100398.47;5074214;28;20496;-67
2022/07/14 03:52:16;;;;;;;13.27;4.40;;;;;;;21.49;49.37;100400.84;5056485;28;20440;-67
2022/07/14 03:54:45;;;;;;;14.18;4.15;;;;;;;21.52;49.63;100401.41;5073962;28;20040;-67
2022/07/14 03:57:15;;;;;;;12.55;4.60;;;;;;;22.42;48.00;100388.31;5074256;28;20508;-67
2022/07/14 03:59:44;;;;;;;10.45;3.55;;;;;;;22.39;47.97;100396.75;5074160;28;20055;-67
2022/07/14 04:02:12;;;;;;;9.25;3.65;;;;;;;22.84;46.65;100391.81;5058916;28;20075;-67
2022/07/14 04:04:41;;;;;;;15.48;4.20;;;;;;;22.65;47.84;100389.38;5076464;28;20041;-67
2022/07/14 04:07:09;;;;;;;10.18;4.07;;;;;;;22.48;48.46;100384.91;5074124;28;20076;-67
2022/07/14 04:09:40;;;;;;;10.45;4.00;;;;;;;23.46;46.55;100385.03;5073586;28;20079;-67
2022/07/14 04:12:09;;;;;;;15.73;5.05;;;;;;;25.16;42.74;100396.22;5074231;28;20048;-67
2022/07/14 04:14:38;;;;;;;12.65;4.68;;;;;;;26.28;40.54;100389.75;5055592;28;20048;-67
2022/07/14 04:17:06;;;;;;;11.93;4.10;;;;;;;26.63;39.16;100388.09;5073543;28;20520;-67
2022/07/14 04:19:35;;;;;;;14.82;4.63;;;;;;;27.04;37.93;100391.09;5073703;28;20051;-67
2022/07/14 04:22:04;;;;;;;14.93;5.35;;;;;;;27.02;37.33;100400.50;5055704;28;20520;-67
2022/07/14 04:24:52;;;;;;;12.93;4.35;;;;;;;27.48;36.37;100400.94;5073352;28;20405;-67
2022/07/14 04:27:20;;;;;;;7.65;3.05;;;;;;;27.84;35.17;100392.59;5073701;28;20045;-67
2022/07/14 04:29:50;;;;;;;5.40;2.33;;;;;;;27.83;35.07;100390.91;5073447;28;20500;-66
2022/07/14 04:32:19;;;;;;;9.05;3.30;;;;;;;26.77;37.76;100395.41;5073343;28;20074;-67
2022/07/14 04:34:48;;;;;;;8.52;3.80;;;;;;;26.87;37.41;100391.53;5073278;28;20401;-68
2022/07/14 04:37:16;;;;;;;8.75;3.80;;;;;;;27.19;36.75;100391.00;5073538;28;20065;-68
2022/07/14 04:39:45;;;;;;;10.73;3.75;;;;;;;28.45;34.52;100389.13;5055384;28;20056;-68
2022/07/14 04:42:14;;;;;;;7.82;3.45;;;;;;;29.05;33.11;100381.94;5073221;28;20446;-66
2022/07/14 04:44:42;;;;;;;8.77;3.90;;;;;;;29.64;31.71;100389.38;5073268;28;20481;-66
2022/07/14 04:47:12;;;;;;;9.85;3.70;;;;;;;30.08;31.56;100390.56;5073242;28;20123;-66
2022/07/14 04:52:26;;;;;;;8.25;4.13;;;;;;;30.78;30.31;100375.88;5073306;28;20067;-66
2022/07/14 04:54:54;;;;;;;8.98;4.03;;;;;;;30.99;30.08;100387.63;5054466;28;20048;-66
2022/07/14 04:57:22;;;;;;;11.20;3.65;;;;;;;29.97;31.83;100389.28;5073279;28;20052;-66
2022/07/14 05:00:00;;;;;;;8.50;3.70;;;;;;;28.85;33.31;100387.34;5072810;28;20044;-66
2022/07/14 05:02:30;;;;;;;8.43;3.40;;;;;;;28.35;35.05;100388.69;5073149;28;20093;-66
2022/07/14 05:04:58;;;;;;;7.25;3.53;;;;;;;27.45;36.59;100403.25;5072986;28;20048;-67
2022/07/14 05:07:26;;;;;;;11.65;3.97;;;;;;;26.92;38.45;100394.50;5073080;28;20047;-67
2022/07/14 05:09:55;;;;;;;13.43;4.55;;;;;;;26.65;38.46;100385.19;5054721;28;20122;-67
2022/07/14 05:12:24;;;;;;;12.73;4.68;;;;;;;28.65;35.16;100392.78;5072637;28;20123;-67
2022/07/14 05:14:52;;;;;;;9.65;3.60;;;;;;;29.98;32.83;100388.22;5072751;28;20390;-67
2022/07/14 05:17:21;;;;;;;9.55;3.70;;;;;;;31.05;30.99;100397.72;5072735;28;20059;-65
2022/07/14 05:19:54;;;;;;;14.20;4.10;;;;;;;31.25;30.70;100397.59;5072562;28;20044;-68
2022/07/14 05:22:23;;;;;;;10.38;3.60;;;;;;;31.66;30.19;100390.72;5073297;28;20480;-67
2022/07/14 05:24:51;;;;;;;10.02;3.85;;;;;;;32.10;29.37;100390.44;5072712;28;20098;-66
2022/07/14 05:27:19;;;;;;;8.07;3.10;;;;;;;32.52;28.36;100392.50;5073053;28;20068;-66
2022/07/14 05:29:48;;;;;;;8.95;3.00;;;;;;;32.78;28.21;100392.16;5072798;28;20439;-66
2022/07/14 05:32:16;;;;;;;10.73;3.17;;;;;;;33.09;27.97;100388.31;5072802;28;20047;-67
2022/07/14 05:34:46;;;;;;;9.63;3.38;;;;;;;33.42;26.95;100393.34;5072462;28;20051;-68
2022/07/14 05:37:15;;;;;;;9.13;3.28;;;;;;;33.32;27.32;100395.81;5072637;28;20041;-66
2022/07/14 05:39:44;;;;;;;8.23;3.15;;;;;;;33.70;27.17;100398.19;5072596;28;20036;-66
2022/07/14 05:42:12;;;;;;;8.43;3.05;;;;;;;33.73;27.55;100397.69;5072489;28;20048;-66
2022/07/14 05:44:41;;;;;;;7.13;3.17;;;;;;;33.79;27.35;100390.38;5072485;28;20120;-66
2022/07/14 05:47:09;;;;;;;8.95;2.70;;;;;;;34.20;27.02;100386.59;5072838;28;20037;-66
2022/07/14 05:49:40;;;;;;;8.10;2.30;;;;;;;34.35;25.40;100386.06;5072849;28;20055;-66
2022/07/14 05:52:11;;;;;;;10.57;2.88;;;;;;;34.71;25.30;100391.25;5072725;28;20060;-66
2022/07/14 05:54:41;;;;;;;6.72;2.40;;;;;;;34.75;25.35;100393.56;5072515;28;20051;-67
2022/07/14 05:57:10;;;;;;;8.88;2.70;;;;;;;34.57;25.03;100381.59;5072856;28;20046;-66
2022/07/14 05:59:38;;;;;;;7.25;3.05;;;;;;;34.94;25.40;100386.75;5072491;28;20036;-66
2022/07/14 06:02:15;;;;;;;9.63;2.47;;;;;;;34.71;25.16;100380.19;5054515;28;20135;-67
2022/07/14 06:04:44;;;;;;;8.80;2.58;;;;;;;35.17;25.05;100371.91;5072101;28;20044;-66
2022/07/14 06:07:12;;;;;;;7.60;2.67;;;;;;;35.42;24.35;100372.34;5076059;28;20049;-66
2022/07/14 06:09:42;;;;;;;8.23;2.80;;;;;;;35.41;24.42;100367.88;5075771;28;20032;-66
2022/07/14 06:12:11;;;;;;;8.60;2.63;;;;;;;35.29;24.03;100379.03;5076010;28;20426;-66
2022/07/14 06:14:40;;;;;;;5.55;2.70;;;;;;;35.51;24.80;100373.59;5076013;28;20044;-67
2022/07/14 06:17:09;;;;;;;7.10;2.40;;;;;;;35.70;25.15;100374.16;5074645;28;20064;-67
2022/07/14 06:19:38;;;;;;;15.18;3.20;;;;;;;35.61;24.05;100372.91;5076139;28;20040;-67
2022/07/14 06:22:07;;;;;;;10.88;2.65;;;;;;;36.42;23.38;100366.84;5075993;28;20075;-67
2022/07/14 06:24:38;;;;;;;8.38;2.70;;;;;;;36.22;24.04;100364.63;5075901;28;20420;-67
2022/07/14 06:27:15;;;;;;;9.38;2.30;;;;;;;36.32;23.43;100373.94;5057847;28;20052;-68
2022/07/14 06:29:44;;;;;;;7.85;2.30;;;;;;;36.29;23.48;100373.59;5075822;28;20047;-67
2022/07/14 06:32:12;;;;;;;6.65;2.05;;;;;;;36.48;22.62;100369.44;5075999;28;20045;-66
2022/07/14 06:34:40;;;;;;;6.22;1.92;;;;;;;36.58;23.19;100360.38;5075824;28;20049;-66
2022/07/14 06:37:08;;;;;;;6.28;2.63;;;;;;;37.32;22.45;100357.78;5075678;28;20072;-67
2022/07/14 06:39:37;;;;;;;7.63;2.70;;;;;;;37.18;23.32;100353.75;5075518;28;20067;-66
2022/07/14 06:42:05;;;;;;;5.43;2.50;;;;;;;37.09;22.43;100350.63;5057164;28;20076;-66
2022/07/14 06:44:35;;;;;;;6.05;2.30;;;;;;;37.03;23.05;100356.41;5057689;28;20072;-66
2022/07/14 06:47:03;;;;;;;8.35;2.33;;;;;;;37.28;23.41;100353.84;5075377;28;20041;-66
2022/07/14 06:49:32;;;;;;;4.32;1.70;;;;;;;37.15;22.07;100354.28;5057475;28;20055;-66
2022/07/14 06:52:00;;;;;;;3.70;1.85;;;;;;;36.93;22.26;100352.41;5075120;28;20484;-66
2022/07/14 06:54:28;;;;;;;3.08;1.55;;;;;;;35.91;22.09;100355.06;5057035;28;20048;-66
2022/07/14 06:56:57;;;;;;;3.20;1.50;;;;;;;37.22;21.56;100352.13;5074950;28;20045;-66
2022/07/14 06:59:25;;;;;;;3.47;1.33;;;;;;;37.41;21.01;100347.00;5075419;28;20040;-66
2022/07/14 07:01:55;;;;;;;3.70;1.30;;;;;;;37.53;20.81;100359.59;5057039;28;20401;-66
2022/07/14 07:04:24;;;;;;;5.40;1.42;;;;;;;35.94;22.00;100349.00;5057184;28;20051;-66
2022/07/14 07:06:55;;;;;;;5.20;1.38;;;;;;;34.93;23.13;100349.00;5074991;28;20051;-68
2022/07/14 07:09:24;;;;;;;6.35;1.42;;;;;;;34.41;23.54;100349.13;5075073;28;20047;-67
2022/07/14 07:11:52;;;;;;;3.33;1.65;;;;;;;34.34;24.08;100348.38;5075145;28;20106;-66
2022/07/14 07:14:21;;;;;;;3.95;1.50;;;;;;;34.52;24.11;100347.41;5057061;28;20052;-66
2022/07/14 07:16:51;;;;;;;5.35;1.20;;;;;;;33.30;24.34;100348.25;5074585;28;20110;-68
2022/07/14 07:19:21;;;;;;;6.43;1.33;;;;;;;32.29;26.29;100349.91;5074835;28;20048;-68
2022/07/14 07:21:49;;;;;;;4.38;1.33;;;;;;;31.87;26.92;100347.03;5074507;28;20044;-68
2022/07/14 07:24:18;;;;;;;2.67;1.40;;;;;;;30.83;27.63;100344.94;5056908;28;20515;-67
2022/07/14 07:26:46;;;;;;;4.00;1.60;;;;;;;31.23;27.78;100339.97;5074496;28;20037;-68
2022/07/14 07:29:14;;;;;;;7.50;1.60;;;;;;;31.62;27.58;100341.50;5074902;28;20489;-67
2022/07/14 07:31:42;;;;;;;7.68;1.70;;;;;;;31.46;27.48;100341.25;5074627;28;20041;-67
2022/07/14 07:34:11;;;;;;;5.85;1.48;;;;;;;31.31;27.83;100342.47;5056780;28;20561;-67
2022/07/14 07:36:41;;;;;;;3.08;1.58;;;;;;;31.59;27.87;100338.38;5056744;28;20559;-67
2022/07/14 07:39:30;;;;;;;4.28;1.42;;;;;;;32.11;27.74;100330.59;5074654;28;20075;-67
2022/07/14 07:42:00;;;;;;;4.47;1.48;;;;;;;32.18;27.05;100329.44;5074105;28;20131;-67
2022/07/14 07:44:30;;;;;;;3.08;1.52;;;;;;;32.07;26.67;100337.66;5074407;28;20083;-67
2022/07/14 07:46:59;;;;;;;7.60;1.92;;;;;;;31.52;27.40;100332.09;5073835;28;20488;-67
2022/07/14 07:49:27;;;;;;;5.05;1.80;;;;;;;31.65;28.06;100333.84;5074609;28;20493;-67
2022/07/14 07:52:01;;;;;;;3.83;1.60;;;;;;;31.37;28.12;100340.72;5073823;28;20512;-67
2022/07/14 07:54:30;;;;;;;4.78;1.60;;;;;;;31.31;28.17;100336.09;5074169;28;20045;-66
2022/07/14 07:57:18;;;;;;;3.55;1.65;;;;;;;31.31;27.98;100330.59;5074381;28;20044;-66
2022/07/14 07:59:49;;;;;;;6.10;1.60;;;;;;;31.01;28.57;100330.41;5074246;28;20086;-67
2022/07/14 08:02:17;;;;;;;4.57;1.60;;;;;;;30.83;28.97;100327.56;5074282;28;20044;-67
2022/07/14 08:04:48;;;;;;;3.78;1.40;;;;;;;31.00;28.69;100325.97;5056106;28;20055;-77
2022/07/14 08:07:18;;;;;;;5.13;1.83;;;;;;;30.95;28.89;100314.75;5073867;28;20207;-67
2022/07/14 08:09:46;;;;;;;7.80;1.90;;;;;;;31.04;28.21;100322.50;5056007;28;20080;-79
2022/07/14 08:12:15;;;;;;;15.18;2.00;;;;;;;31.14;28.23;100327.53;5073685;28;20447;-67
2022/07/14 08:14:49;;;;;;;5.18;1.73;;;;;;;31.16;27.78;100319.88;5056073;28;20041;-67
2022/07/14 08:17:19;;;;;;;3.78;1.40;;;;;;;30.92;27.26;100324.31;5073963;28;20390;-67
2022/07/14 08:19:48;;;;;;;2.97;1.40;;;;;;;31.04;27.52;100324.44;5073315;28;20045;-71
2022/07/14 08:22:24;;;;;;;3.58;1.60;;;;;;;31.14;28.10;100318.41;5073801;28;20414;-66
2022/07/14 08:24:54;;;;;;;3.45;1.25;;;;;;;30.77;27.25;100319.13;5073627;28;20047;-67
2022/07/14 08:27:23;;;;;;;2.58;1.20;;;;;;;30.70;26.61;100317.50;5073670;28;20136;-66
2022/07/14 08:29:52;;;;;;;1.88;1.30;;;;;;;30.87;26.85;100323.28;5054826;28;20455;-67
2022/07/14 08:32:34;;;;;;;2.33;1.23;;;;;;;31.30;27.45;100324.25;5073472;28;20123;-67
2022/07/14 08:35:03;;;;;;;2.33;1.38;;;;;;;31.49;26.73;100311.34;5073184;28;20041;-67
2022/07/14 08:37:34;;;;;;;2.25;1.25;;;;;;;31.41;25.97;100311.63;5073543;28;20481;-67
2022/07/14 08:40:06;;;;;;;3.25;1.45;;;;;;;31.47;25.95;100307.13;5072929;28;20393;-67
2022/07/14 08:42:36;;;;;;;4.38;1.40;;;;;;;31.59;25.70;100306.13;5073632;28;20037;-67
2022/07/14 08:45:08;;;;;;;4.50;1.50;;;;;;;31.75;25.63;100304.72;5073114;28;20052;-67
2022/07/14 08:47:38;;;;;;;3.40;1.35;;;;;;;31.52;25.43;100299.00;5073103;28;20041;-66
2022/07/14 08:50:09;;;;;;;3.88;1.50;;;;;;;31.68;25.75;100298.41;5073147;28;20063;-66
2022/07/14 08:52:41;;;;;;;2.22;1.38;;;;;;;31.77;25.65;100297.06;5055314;28;20467;-66
2022/07/14 08:55:11;;;;;;;4.72;1.30;;;;;;;31.23;26.07;100284.88;5072741;28;20127;-66
2022/07/14 08:57:40;;;;;;;3.95;1.20;;;;;;;31.58;25.67;100298.94;5073277;28;20090;-66
2022/07/14 09:00:13;;;;;;;4.63;1.50;;;;;;;31.73;25.77;100294.94;5073025;28;20406;-66
2022/07/14 09:02:48;;;;;;;2.92;1.10;;;;;;;31.76;25.24;100292.63;5055475;28;20048;-66
2022/07/14 09:05:38;;;;;;;4.55;1.33;;;;;;;31.72;24.88;100299.63;5072670;28;20112;-66
2022/07/14 09:08:08;;;;;;;3.05;1.40;;;;;;;31.76;24.82;100289.88;5072794;28;20048;-66
2022/07/14 09:10:39;;;;;;;4.45;1.38;;;;;;;31.93;24.73;100286.47;5072691;28;20064;-66
2022/07/14 09:13:31;;;;;;;3.05;1.20;;;;;;;31.88;24.52;100282.50;5072891;28;20041;-66
2022/07/14 09:16:15;;;;;;;2.72;1.10;;;;;;;31.65;24.85;100284.22;5072591;28;20118;-67
2022/07/14 09:19:01;;;;;;;3.03;1.30;;;;;;;31.60;24.99;100266.47;5072937;28;20040;-68
2022/07/14 09:21:30;;;;;;;1.98;1.20;;;;;;;31.87;24.97;100274.47;5073132;28;20131;-66
2022/07/14 09:24:00;;;;;;;3.60;1.10;;;;;;;31.89;24.72;100267.63;5072519;28;20048;-67
2022/07/14 09:26:29;;;;;;;2.97;1.17;;;;;;;32.07;24.77;100257.66;5054701;28;20455;-67
2022/07/14 09:28:57;;;;;;;2.80;1.20;;;;;;;32.09;24.43;100261.84;5072288;28;20075;-66
2022/07/14 09:31:27;;;;;;;4.28;1.30;;;;;;;32.05;24.08;100259.81;5072729;28;20185;-66
2022/07/14 09:33:58;;;;;;;2.28;1.15;;;;;;;32.04;24.29;100258.09;5072707;28;20068;-68
2022/07/14 09:36:29;;;;;;;2.58;1.10;;;;;;;31.92;24.53;100258.06;5072774;28;20068;-67
2022/07/14 09:39:01;;;;;;;4.40;1.20;;;;;;;32.16;24.64;100250.75;5072298;28;20520;-67
2022/07/14 09:41:30;;;;;;;3.95;1.25;;;;;;;32.37;24.31;100258.53;5077098;28;20052;-67
2022/07/14 09:44:10;;;;;;;2.55;1.10;;;;;;;32.47;24.28;100246.91;5076539;28;20048;-68
2022/07/14 09:46:51;;;;;;;6.30;1.33;;;;;;;32.58;23.88;100248.88;5076652;28;20508;-67
2022/07/14 09:49:21;;;;;;;1.75;1.00;;;;;;;32.40;23.70;100252.53;5076790;28;20047;-67
2022/07/14 09:51:59;;;;;;;1.73;0.90;;;;;;;32.43;23.81;100252.09;5076556;28;20442;-67
2022/07/14 09:54:45;;;;;;;3.38;1.42;;;;;;;32.43;23.22;100257.59;5076817;28;20049;-67
2022/07/14 09:57:22;;;;;;;2.55;1.00;;;;;;;32.52;23.43;100251.72;5076456;28;20052;-68
2022/07/14 09:59:53;;;;;;;3.92;1.40;;;;;;;32.76;23.33;100253.47;5076654;28;20044;-68
2022/07/14 10:02:24;;;;;;;2.10;1.23;;;;;;;32.86;23.16;100248.22;5076238;28;20045;-66
2022/07/14 10:04:54;;;;;;;2.22;1.17;;;;;;;32.91;23.46;100248.38;5076431;28;20040;-67
2022/07/14 10:07:25;;;;;;;2.72;1.17;;;;;;;32.92;23.41;100241.75;5076504;28;20040;-67
2022/07/14 10:10:04;;;;;;;3.20;1.30;;;;;;;32.67;23.13;100238.31;5058501;28;20048;-67
2022/07/14 10:12:34;;;;;;;2.83;1.08;;;;;;;32.95;22.88;100232.97;5076102;28;20072;-66
2022/07/14 10:15:04;;;;;;;2.50;1.20;;;;;;;33.15;22.74;100237.31;5076044;28;20044;-66
2022/07/14 10:17:36;;;;;;;3.80;1.17;;;;;;;33.33;22.71;100228.91;5075966;28;20071;-66
2022/07/14 10:20:07;;;;;;;2.40;1.23;;;;;;;33.24;22.34;100231.19;5075753;28;20041;-67
2022/07/14 10:22:36;;;;;;;3.20;1.10;;;;;;;33.16;22.58;100228.78;5076014;28;20121;-66
2022/07/14 10:25:07;;;;;;;2.05;1.30;;;;;;;32.96;22.33;100228.28;5057576;28;20076;-67
2022/07/14 10:27:41;;;;;;;3.55;1.40;;;;;;;32.81;23.04;100228.72;5057949;28;20052;-66
2022/07/14 10:30:11;;;;;;;3.45;1.45;;;;;;;32.73;22.89;100218.06;5077886;28;20051;-66
2022/07/14 10:32:50;;;;;;;2.40;1.13;;;;;;;32.63;22.55;100223.31;5078670;28;20056;-66
2022/07/14 10:35:37;;;;;;;3.08;1.25;;;;;;;32.59;22.99;100213.81;5057964;28;20440;-66
2022/07/14 10:38:18;;;;;;;3.60;1.17;;;;;;;32.39;23.08;100212.22;5075884;28;20063;-66
2022/07/14 10:41:00;;;;;;;2.35;1.30;;;;;;;32.42;23.22;100210.88;5075508;28;20068;-67
2022/07/14 10:43:46;;;;;;;5.47;1.47;;;;;;;32.70;22.85;100201.94;5075613;28;20106;-66
2022/07/14 10:46:34;;;;;;;2.38;1.15;;;;;;;32.89;23.53;100200.78;5075458;28;20068;-66
2022/07/14 10:49:03;;;;;;;2.90;1.20;;;;;;;32.98;22.56;100204.88;5075349;28;20045;-66
2022/07/14 10:51:32;;;;;;;2.70;1.20;;;;;;;32.84;22.81;100197.91;5074729;28;20044;-67
2022/07/14 10:54:11;;;;;;;3.67;1.23;;;;;;;33.17;22.27;100197.28;5075055;28;20041;-68
2022/07/14 10:57:13;;;;;;;1.77;1.33;;;;;;;33.35;22.14;100182.50;5057415;28;20056;-67
2022/07/14 10:59:43;;;;;;;2.72;1.35;;;;;;;33.28;21.93;100187.31;5075469;28;20048;-67
2022/07/14 11:02:33;;;;;;;2.28;1.15;;;;;;;33.34;22.02;100168.91;5075539;28;20107;-68
2022/07/14 11:05:08;;;;;;;3.25;1.13;;;;;;;33.33;22.23;100178.31;5075238;28;20079;-67
2022/07/14 11:07:38;;;;;;;3.47;1.25;;;;;;;33.54;22.59;100175.75;5057233;28;20044;-66
2022/07/14 11:10:40;;;;;;;2.75;1.40;;;;;;;33.12;22.43;100179.78;5074932;28;20064;-67
2022/07/14 11:13:10;;;;;;;2.80;1.30;;;;;;;32.98;22.19;100180.00;5075002;28;20060;-69
2022/07/14 11:15:41;;;;;;;2.38;1.33;;;;;;;32.80;23.11;100185.63;5075390;28;20393;-67
2022/07/14 11:18:26;;;;;;;2.20;0.98;;;;;;;33.11;21.51;100164.28;5056575;28;20063;-67
2022/07/14 11:20:59;;;;;;;2.78;1.13;;;;;;;33.37;20.92;100160.16;5075035;28;20047;-67
2022/07/14 11:23:30;;;;;;;3.50;1.20;;;;;;;33.18;21.38;100160.28;5075085;28;20513;-67
2022/07/14 11:26:01;;;;;;;3.92;1.30;;;;;;;33.27;21.05;100158.00;5074926;28;20048;-81
2022/07/14 11:28:39;;;;;;;2.35;1.10;;;;;;;33.32;21.29;100149.81;5075008;28;20116;-66
2022/07/14 11:31:12;;;;;;;2.53;1.40;;;;;;;33.65;21.22;100137.25;5074828;28;20478;-67
2022/07/14 11:36:27;;;;;;;4.97;1.15;;;;;;;34.12;20.30;100158.09;5074312;28;20098;-67
2022/07/14 11:39:24;;;;;;;3.25;1.17;;;;;;;33.73;20.75;100142.38;5074428;28;20048;-67
2022/07/14 11:42:03;;;;;;;2.15;1.10;;;;;;;33.82;20.82;100149.19;5074309;28;20440;-67
2022/07/14 11:44:51;;;;;;;3.63;1.20;;;;;;;33.76;20.77;100145.47;5074572;28;20402;-67
2022/07/14 11:47:22;;;;;;;2.10;1.10;;;;;;;33.85;21.21;100137.63;5074317;28;20552;-67
2022/07/14 11:49:53;;;;;;;4.68;1.30;;;;;;;34.09;21.11;100138.41;5074530;28;20053;-67